Time;durP1;ratioP1;P1;durP2;ratioP2;P2;SDS_P1;SDS_P2;PMS_P1;PMS_P2;Temp;Humidity;BMP_temperature;BMP_pressure;BME280_temperature;BME280_humidity;BME280_pressure;Samples;Min_cycle;Max_cycle;Signal;HPM_P1;HPM_P2
2022/03/16 00:00:09;;;;;;;14.87;10.80;;;;;;;6.93;52.86;95851.25;5054745;28;20436;-78
2022/03/16 00:02:36;;;;;;;15.77;9.93;;;;;;;6.98;52.38;95860.53;5036334;28;20462;-78
2022/03/16 00:05:05;;;;;;;10.33;8.33;;;;;;;7.04;51.92;95864.56;5054511;28;20481;-78
2022/03/16 00:07:32;;;;;;;10.57;9.20;;;;;;;7.06;50.83;95857.50;5054961;28;20441;-79
2022/03/16 00:09:59;;;;;;;12.43;9.43;;;;;;;7.04;51.61;95848.91;5054613;28;20453;-78
2022/03/16 00:12:26;;;;;;;10.07;8.30;;;;;;;7.07;52.84;95856.56;5055109;28;20430;-79
2022/03/16 00:14:53;;;;;;;14.93;9.83;;;;;;;7.06;52.71;95857.50;5055239;28;20504;-78
2022/03/16 00:17:20;;;;;;;14.53;10.23;;;;;;;7.03;52.80;95853.28;5054274;28;21025;-79
2022/03/16 00:19:46;;;;;;;13.40;10.43;;;;;;;7.02;52.83;95859.44;5054154;28;20958;-78
2022/03/16 00:22:18;;;;;;;17.80;11.33;;;;;;;7.00;52.25;95857.84;5054483;28;20553;-79
2022/03/16 00:24:45;;;;;;;13.60;10.50;;;;;;;6.94;53.10;95852.94;5035362;28;20477;-79
2022/03/16 00:27:12;;;;;;;15.83;11.63;;;;;;;6.89;53.29;95857.56;5054105;28;20450;-79
2022/03/16 00:29:39;;;;;;;14.57;10.27;;;;;;;6.83;53.90;95859.59;5053851;28;20438;-79
2022/03/16 00:32:07;;;;;;;13.93;10.30;;;;;;;6.79;54.05;95854.63;5053614;28;20803;-78
2022/03/16 00:34:34;;;;;;;15.17;10.40;;;;;;;6.72;54.85;95841.09;5053387;28;20952;-77
2022/03/16 00:37:00;;;;;;;15.67;10.53;;;;;;;6.69;55.87;95832.59;5034063;28;20445;-77
2022/03/16 00:39:29;;;;;;;14.50;10.27;;;;;;;6.63;55.86;95838.97;5052781;28;20442;-78
2022/03/16 00:41:56;;;;;;;11.60;9.17;;;;;;;6.61;55.21;95839.97;5053451;28;20442;-77
2022/03/16 00:44:23;;;;;;;12.70;10.00;;;;;;;6.60;56.58;95823.50;5053911;28;20483;-79
2022/03/16 00:46:50;;;;;;;19.70;10.67;;;;;;;6.57;55.63;95812.38;5019248;28;20441;-78
2022/03/16 00:49:17;;;;;;;16.57;11.27;;;;;;;6.54;55.84;95805.56;5054201;28;20430;-78
2022/03/16 00:51:44;;;;;;;15.13;10.60;;;;;;;6.53;55.96;95806.50;5054347;28;20536;-78
2022/03/16 00:54:11;;;;;;;20.63;11.57;;;;;;;6.50;56.09;95804.06;5054563;28;20513;-78
2022/03/16 00:56:39;;;;;;;15.80;11.67;;;;;;;6.50;56.14;95804.91;5035485;28;20457;-78
2022/03/16 00:59:06;;;;;;;15.93;10.63;;;;;;;6.48;56.29;95795.50;5054259;28;20800;-78
2022/03/16 01:01:32;;;;;;;17.27;10.87;;;;;;;6.47;56.60;95792.03;5053990;28;20430;-78
2022/03/16 01:03:59;;;;;;;15.80;11.60;;;;;;;6.41;56.68;95788.94;5053821;28;20481;-78
2022/03/16 01:06:26;;;;;;;17.13;11.70;;;;;;;6.34;56.49;95791.00;5053558;28;20819;-78
2022/03/16 01:08:53;;;;;;;17.03;10.60;;;;;;;6.34;56.48;95788.38;5017821;28;20833;-79
2022/03/16 01:11:20;;;;;;;17.93;11.90;;;;;;;6.32;56.53;95774.59;5053007;28;20549;-79
2022/03/16 01:13:49;;;;;;;15.17;10.73;;;;;;;6.38;55.97;95776.91;5054009;28;20450;-78
2022/03/16 01:16:16;;;;;;;20.10;12.47;;;;;;;6.35;55.17;95755.34;5035280;28;20453;-78
2022/03/16 01:18:43;;;;;;;15.73;10.73;;;;;;;6.36;55.69;95754.44;5053619;28;20445;-79
2022/03/16 01:21:10;;;;;;;17.17;11.73;;;;;;;6.29;55.68;95766.13;5053492;28;20468;-78
2022/03/16 01:23:38;;;;;;;22.37;15.13;;;;;;;6.28;55.83;95760.06;5053270;28;20465;-78
2022/03/16 01:26:06;;;;;;;23.17;17.60;;;;;;;6.19;55.82;95750.13;5018544;28;20496;-79
2022/03/16 01:28:34;;;;;;;28.03;17.67;;;;;;;6.10;56.54;95730.63;5053665;28;20441;-79
2022/03/16 01:31:03;;;;;;;30.37;18.50;;;;;;;6.13;56.88;95732.25;5053505;28;20446;-78
2022/03/16 01:33:30;;;;;;;28.70;18.87;;;;;;;6.06;56.52;95729.09;5035359;28;20452;-79
2022/03/16 01:35:58;;;;;;;29.43;19.20;;;;;;;6.01;57.36;95718.09;5053759;28;20435;-78
2022/03/16 01:38:25;;;;;;;33.10;20.50;;;;;;;5.90;56.94;95704.81;5053534;28;20430;-78
2022/03/16 01:40:52;;;;;;;27.97;21.10;;;;;;;5.89;57.06;95727.41;5053075;28;20446;-78
2022/03/16 01:43:19;;;;;;;37.60;21.60;;;;;;;5.83;57.78;95726.88;5053015;28;20434;-79
2022/03/16 01:45:47;;;;;;;33.77;23.80;;;;;;;5.61;57.85;95724.53;5053242;28;20461;-77
2022/03/16 01:48:16;;;;;;;35.40;23.90;;;;;;;5.66;57.62;95730.34;5053348;28;20450;-79
2022/03/16 01:50:43;;;;;;;32.10;23.30;;;;;;;5.70;58.44;95728.41;5053231;28;20442;-79
2022/03/16 01:53:11;;;;;;;36.20;25.70;;;;;;;5.74;58.85;95714.31;5053224;28;20433;-79
2022/03/16 01:55:39;;;;;;;42.33;24.77;;;;;;;5.70;57.67;95710.19;5053600;28;20433;-78
2022/03/16 02:04:51;;;;;;;33.57;22.77;;;;;;;5.59;59.01;95718.56;5051926;28;20543;-79
2022/03/16 02:07:17;;;;;;;38.13;22.00;;;;;;;5.58;58.96;95707.31;5034632;28;20948;-79
2022/03/16 02:09:45;;;;;;;34.63;22.27;;;;;;;5.64;58.26;95715.72;5053359;28;20442;-77
2022/03/16 02:12:12;;;;;;;31.23;20.00;;;;;;;5.71;59.47;95711.88;5052989;28;20453;-78
2022/03/16 02:14:40;;;;;;;25.43;16.47;;;;;;;5.77;59.21;95703.72;5053621;28;20433;-78
2022/03/16 02:17:06;;;;;;;23.40;16.33;;;;;;;5.80;58.93;95699.22;5052720;28;21007;-79
2022/03/16 02:19:34;;;;;;;22.33;15.53;;;;;;;5.84;58.66;95705.09;5053363;28;20894;-78
2022/03/16 02:22:05;;;;;;;18.70;14.53;;;;;;;5.91;59.78;95709.09;5034121;28;20591;-77
2022/03/16 02:24:33;;;;;;;18.80;13.10;;;;;;;5.95;59.27;95704.56;5052870;28;20481;-78
2022/03/16 02:27:00;;;;;;;19.80;13.40;;;;;;;5.99;59.50;95704.31;5053625;28;20433;-77
2022/03/16 02:29:28;;;;;;;16.30;13.03;;;;;;;5.99;58.96;95703.47;5052633;28;20460;-77
2022/03/16 02:31:55;;;;;;;18.60;12.93;;;;;;;5.93;59.55;95691.63;5053123;28;20441;-77
2022/03/16 02:34:22;;;;;;;19.07;14.70;;;;;;;6.06;59.16;95682.19;5053531;28;20460;-78
2022/03/16 02:36:48;;;;;;;21.33;14.00;;;;;;;6.10;59.17;95691.56;5052706;28;20937;-78
2022/03/16 02:39:15;;;;;;;18.43;12.40;;;;;;;6.14;59.20;95687.84;5052960;28;20434;-78
2022/03/16 02:41:47;;;;;;;18.80;12.43;;;;;;;6.18;59.07;95683.31;5053620;28;20437;-78
2022/03/16 02:44:14;;;;;;;20.03;12.40;;;;;;;6.18;59.55;95685.91;5052400;28;20511;-78
2022/03/16 02:46:41;;;;;;;19.00;12.70;;;;;;;6.15;59.92;95688.69;5053294;28;20485;-79
2022/03/16 02:49:07;;;;;;;21.80;14.33;;;;;;;6.11;59.91;95682.81;5055916;28;20445;-79
2022/03/16 02:51:35;;;;;;;19.63;12.23;;;;;;;6.12;59.60;95687.09;5056239;28;20430;-77
2022/03/16 02:54:01;;;;;;;21.27;12.37;;;;;;;6.10;59.29;95678.53;5056133;28;20422;-76
2022/03/16 02:56:28;;;;;;;21.00;13.23;;;;;;;6.12;60.31;95681.88;5056194;28;20450;-77
2022/03/16 02:58:57;;;;;;;17.90;13.43;;;;;;;6.16;60.17;95680.78;5056356;28;20960;-77
2022/03/16 03:01:24;;;;;;;20.20;12.83;;;;;;;6.15;59.38;95671.31;5056093;28;20449;-76
2022/03/16 03:03:51;;;;;;;17.60;12.30;;;;;;;6.12;60.60;95661.03;5056412;28;21113;-78
2022/03/16 03:06:18;;;;;;;19.63;12.87;;;;;;;6.16;59.71;95669.53;5055482;28;20477;-78
2022/03/16 03:08:45;;;;;;;22.10;12.70;;;;;;;6.17;60.09;95666.84;5021173;28;20524;-78
2022/03/16 03:11:12;;;;;;;18.47;11.50;;;;;;;6.10;60.38;95655.09;5055757;28;20441;-77
2022/03/16 03:13:39;;;;;;;16.87;12.50;;;;;;;6.08;60.73;95649.13;5055986;28;20480;-78
2022/03/16 03:16:08;;;;;;;21.93;14.10;;;;;;;6.14;60.43;95650.53;5037561;28;20482;-78
2022/03/16 03:18:35;;;;;;;18.07;13.00;;;;;;;6.13;60.37;95641.88;5037597;28;20437;-79
2022/03/16 03:21:02;;;;;;;20.80;13.37;;;;;;;6.17;60.66;95650.38;5055442;28;20504;-78
2022/03/16 03:23:29;;;;;;;18.87;12.60;;;;;;;6.14;60.52;95646.16;5056130;28;20508;-78
2022/03/16 03:25:56;;;;;;;19.90;12.70;;;;;;;6.11;60.20;95641.13;5055307;28;20470;-78
2022/03/16 03:28:23;;;;;;;18.10;13.00;;;;;;;6.17;61.01;95643.38;5055797;28;20444;-78
2022/03/16 03:30:50;;;;;;;18.13;12.07;;;;;;;6.18;61.10;95641.63;5037641;28;20480;-78
2022/03/16 03:33:18;;;;;;;17.83;11.93;;;;;;;6.19;60.50;95651.13;5055648;28;20438;-78
2022/03/16 03:35:45;;;;;;;17.03;10.90;;;;;;;6.18;60.28;95645.06;5056032;28;20430;-78
2022/03/16 03:38:13;;;;;;;25.90;12.90;;;;;;;6.24;60.42;95648.25;5055520;28;20529;-77
2022/03/16 03:40:40;;;;;;;17.40;12.23;;;;;;;6.26;59.98;95651.63;5055164;28;20462;-78
2022/03/16 03:43:07;;;;;;;20.87;13.20;;;;;;;6.24;59.99;95643.03;5055433;28;20434;-78
2022/03/16 03:45:33;;;;;;;17.03;11.67;;;;;;;6.29;59.81;95643.63;5055632;28;20577;-78
2022/03/16 03:48:00;;;;;;;17.80;12.63;;;;;;;6.29;59.53;95641.00;5055193;28;20426;-78
2022/03/16 03:50:29;;;;;;;18.90;12.83;;;;;;;6.24;60.42;95635.22;5037487;28;20804;-78
2022/03/16 03:52:56;;;;;;;19.63;12.47;;;;;;;6.26;60.73;95641.19;5055319;28;20454;-78
2022/03/16 03:55:23;;;;;;;16.33;12.50;;;;;;;6.24;59.34;95643.03;5054965;28;20434;-78
2022/03/16 03:57:50;;;;;;;22.43;11.87;;;;;;;6.23;60.16;95631.78;5055344;28;20783;-78
2022/03/16 04:00:18;;;;;;;16.73;12.47;;;;;;;6.21;59.87;95634.47;5054313;28;20441;-78
2022/03/16 04:02:49;;;;;;;16.30;12.03;;;;;;;6.22;60.90;95637.91;5055148;28;20444;-79
2022/03/16 04:05:17;;;;;;;17.60;11.07;;;;;;;6.21;60.78;95634.47;5054941;28;20473;-78
2022/03/16 04:07:46;;;;;;;17.97;12.00;;;;;;;6.22;60.38;95630.09;5036419;28;20507;-78
2022/03/16 04:10:13;;;;;;;18.70;12.80;;;;;;;6.19;60.15;95638.94;5036330;28;20458;-80
2022/03/16 04:12:40;;;;;;;17.63;12.50;;;;;;;6.24;60.48;95645.66;5054831;28;20429;-79
2022/03/16 04:15:09;;;;;;;15.83;11.77;;;;;;;6.21;60.57;95644.91;5054072;28;20442;-79
2022/03/16 04:17:36;;;;;;;16.77;11.87;;;;;;;6.24;60.71;95641.28;5054721;28;20446;-79
2022/03/16 04:20:04;;;;;;;16.90;11.63;;;;;;;6.24;60.98;95640.44;5054790;28;20426;-80
2022/03/16 04:22:31;;;;;;;17.83;12.40;;;;;;;6.24;60.88;95641.28;5054559;28;20471;-79
2022/03/16 04:24:59;;;;;;;18.63;10.70;;;;;;;6.23;60.94;95631.78;5054373;28;20477;-79
2022/03/16 04:34:09;;;;;;;15.33;11.67;;;;;;;6.20;60.23;95617.16;5052542;28;20513;-80
2022/03/16 04:36:36;;;;;;;16.17;12.20;;;;;;;6.19;61.03;95614.63;5054050;28;20524;-79
2022/03/16 04:39:04;;;;;;;19.05;13.48;;;;;;;6.23;60.91;95610.94;5053761;28;20444;-79
2022/03/16 04:41:32;;;;;;;15.20;12.57;;;;;;;6.28;60.10;95608.91;5053362;28;20230;-78
2022/03/16 04:43:59;;;;;;;19.70;13.80;;;;;;;6.28;60.48;95606.28;5034219;28;20447;-78
2022/03/16 04:46:26;;;;;;;16.23;12.77;;;;;;;6.30;59.79;95598.38;5034520;28;20491;-80
2022/03/16 04:48:53;;;;;;;21.43;11.43;;;;;;;6.31;60.55;95597.47;4999423;28;20434;-80
2022/03/16 04:51:20;;;;;;;22.03;13.73;;;;;;;6.33;60.31;95588.63;5034259;28;20453;-80
2022/03/16 04:53:47;;;;;;;17.60;11.20;;;;;;;6.32;60.17;95583.50;5034052;28;20443;-80
2022/03/16 04:56:14;;;;;;;22.53;12.33;;;;;;;6.31;60.51;95585.25;5035706;28;20435;-80
2022/03/16 04:58:42;;;;;;;22.07;13.50;;;;;;;6.30;60.26;95582.75;5034283;28;20807;-79
2022/03/16 05:01:09;;;;;;;20.47;13.33;;;;;;;6.30;60.90;95582.75;5033793;28;20431;-81
2022/03/16 05:03:36;;;;;;;21.73;12.23;;;;;;;6.32;60.05;95575.69;5033738;28;20458;-79
2022/03/16 05:06:03;;;;;;;26.10;15.80;;;;;;;6.33;60.02;95582.56;5033811;28;20852;-80
2022/03/16 05:08:29;;;;;;;18.20;13.00;;;;;;;6.36;60.99;95579.78;5038445;28;20469;-80
2022/03/16 05:10:56;;;;;;;20.90;11.50;;;;;;;6.31;61.67;95563.56;5051648;28;20450;-78
2022/03/16 05:13:23;;;;;;;24.47;12.30;;;;;;;6.29;61.13;95568.88;5052842;28;20462;-80
2022/03/16 05:15:52;;;;;;;18.23;12.20;;;;;;;6.28;60.40;95575.03;5053595;28;20442;-79
2022/03/16 05:18:18;;;;;;;24.27;12.33;;;;;;;6.29;61.14;95568.03;5054132;28;20434;-80
2022/03/16 05:20:45;;;;;;;26.50;14.20;;;;;;;6.28;60.85;95571.56;5053818;28;20429;-80
2022/03/16 05:23:12;;;;;;;19.63;12.80;;;;;;;6.31;60.96;95569.63;5049169;28;20474;-79
2022/03/16 05:25:39;;;;;;;22.37;13.80;;;;;;;6.36;60.56;95571.97;5040024;28;20480;-80
2022/03/16 05:28:06;;;;;;;18.33;13.23;;;;;;;6.37;60.55;95571.06;5052330;28;20963;-78
2022/03/16 05:30:33;;;;;;;27.20;14.63;;;;;;;6.40;60.99;95565.69;5051998;28;20477;-79
2022/03/16 05:33:02;;;;;;;23.90;15.00;;;;;;;6.40;60.64;95563.06;5052518;28;20453;-79
2022/03/16 05:35:30;;;;;;;28.13;15.13;;;;;;;6.37;60.46;95558.03;5052387;28;20453;-81
2022/03/16 05:37:57;;;;;;;21.00;14.47;;;;;;;6.42;61.04;95562.06;5052751;28;20499;-81
2022/03/16 05:40:24;;;;;;;31.20;14.23;;;;;;;6.26;61.35;95556.03;5052153;28;20788;-79
2022/03/16 05:42:51;;;;;;;35.03;17.53;;;;;;;6.04;63.37;95550.34;5052140;28;20454;-79
2022/03/16 05:45:18;;;;;;;35.23;19.30;;;;;;;5.99;62.65;95536.75;5052952;28;20481;-79
2022/03/16 05:47:44;;;;;;;60.23;19.00;;;;;;;6.00;62.70;95544.47;5052835;28;20438;-78
2022/03/16 05:50:13;;;;;;;45.90;20.07;;;;;;;5.98;63.98;95533.31;5052136;28;20448;-79
2022/03/16 05:52:41;;;;;;;46.27;20.83;;;;;;;5.99;63.59;95529.78;5052265;28;20454;-79
2022/03/16 05:55:09;;;;;;;38.13;21.80;;;;;;;6.06;64.29;95538.06;5051875;28;20438;-80
2022/03/16 05:57:39;;;;;;;71.43;29.97;;;;;;;6.05;63.93;95529.41;5052256;28;20481;-79
2022/03/16 06:00:08;;;;;;;62.80;31.90;;;;;;;5.71;62.60;95524.41;5052257;28;20798;-80
2022/03/16 06:02:35;;;;;;;58.37;31.67;;;;;;;5.81;62.10;95528.19;5051961;28;20536;-79
2022/03/16 06:05:01;;;;;;;56.47;30.93;;;;;;;5.79;62.84;95515.25;5051800;28;21028;-81
2022/03/16 06:07:30;;;;;;;66.20;30.30;;;;;;;5.79;63.63;95522.22;5052042;28;20526;-81
2022/03/16 06:09:57;;;;;;;63.57;30.77;;;;;;;5.84;63.00;95518.44;5051911;28;20967;-80
2022/03/16 06:12:24;;;;;;;59.50;26.63;;;;;;;5.75;62.21;95516.31;5052163;28;20536;-80
2022/03/16 06:14:51;;;;;;;56.00;28.13;;;;;;;5.71;63.54;95519.19;5051941;28;20517;-80
2022/03/16 06:17:18;;;;;;;57.20;28.57;;;;;;;5.68;63.28;95521.97;5051741;28;20959;-81
2022/03/16 06:19:44;;;;;;;61.43;30.60;;;;;;;5.63;63.80;95522.22;5051568;28;20446;-80
2022/03/16 06:22:11;;;;;;;72.97;38.90;;;;;;;5.66;64.23;95516.00;5052380;28;20472;-80
2022/03/16 06:24:40;;;;;;;77.25;44.80;;;;;;;5.73;65.02;95528.59;5054479;28;20438;-79
2022/03/16 06:27:06;;;;;;;75.33;41.70;;;;;;;5.73;63.76;95525.16;5055341;28;20219;-80
2022/03/16 06:29:33;;;;;;;63.07;35.17;;;;;;;5.75;62.53;95520.69;5055545;28;20438;-81
2022/03/16 06:32:00;;;;;;;52.63;33.27;;;;;;;5.73;62.16;95523.38;5055409;28;20449;-80
2022/03/16 06:34:28;;;;;;;57.67;32.70;;;;;;;5.77;62.49;95516.25;5055238;28;20455;-80
2022/03/16 06:36:55;;;;;;;59.93;35.27;;;;;;;5.82;61.60;95527.25;5055333;28;20994;-81
2022/03/16 06:39:22;;;;;;;72.97;40.60;;;;;;;5.89;62.48;95526.00;5019921;28;20963;-80
2022/03/16 06:41:50;;;;;;;66.50;37.47;;;;;;;5.91;62.17;95534.59;5055557;28;20429;-82
2022/03/16 06:44:17;;;;;;;77.97;35.37;;;;;;;5.90;63.54;95530.31;5055236;28;20449;-78
2022/03/16 06:46:46;;;;;;;57.43;35.57;;;;;;;5.72;64.16;95531.28;5019811;28;20484;-79
2022/03/16 06:49:13;;;;;;;65.43;37.47;;;;;;;5.92;64.86;95531.06;5055475;28;20533;-78
2022/03/16 06:51:40;;;;;;;78.03;41.53;;;;;;;6.00;64.42;95521.03;5036352;28;20441;-79
2022/03/16 06:54:06;;;;;;;73.37;39.37;;;;;;;6.10;63.05;95531.78;5055149;28;20444;-80
2022/03/16 06:56:33;;;;;;;67.03;42.43;;;;;;;6.17;63.34;95533.09;5057050;28;20525;-78
2022/03/16 06:59:02;;;;;;;98.00;49.50;;;;;;;6.20;64.04;95535.53;5054968;28;20440;-80
2022/03/16 07:01:28;;;;;;;99.17;52.70;;;;;;;6.16;64.50;95529.66;5055264;28;20449;-79
2022/03/16 07:03:55;;;;;;;116.80;55.40;;;;;;;6.25;63.65;95538.72;5055442;28;20794;-80
2022/03/16 07:06:22;;;;;;;86.07;45.80;;;;;;;6.31;62.62;95548.78;5054525;28;20492;-79
2022/03/16 07:08:50;;;;;;;79.83;40.43;;;;;;;6.26;61.50;95532.56;5055162;28;20461;-79
2022/03/16 07:11:17;;;;;;;60.30;34.67;;;;;;;6.39;60.17;95535.31;5054834;28;20479;-80
2022/03/16 07:14:30;;;;;;;76.93;39.83;;;;;;;6.45;57.67;95533.19;5035910;28;20453;-80
2022/03/16 07:16:32;;;;;;;52.60;36.23;;;;;;;6.52;56.97;95529.28;5054352;28;20445;-81
2022/03/16 07:18:59;;;;;;;62.07;33.00;;;;;;;6.57;57.04;95520.34;5054738;28;20460;-79
2022/03/16 07:21:26;;;;;;;78.20;36.57;;;;;;;6.65;56.92;95516.38;5054202;28;20451;-79
2022/03/16 07:23:53;;;;;;;79.70;38.10;;;;;;;6.72;57.40;95519.47;5054599;28;20663;-80
2022/03/16 07:26:20;;;;;;;61.53;35.63;;;;;;;6.79;57.75;95520.78;5054502;28;21003;-80
2022/03/16 07:28:47;;;;;;;78.97;34.40;;;;;;;6.81;58.24;95508.47;5054558;28;20456;-81
2022/03/16 07:31:13;;;;;;;68.30;38.70;;;;;;;6.90;58.88;95513.13;5035604;28;20448;-80
2022/03/16 07:33:42;;;;;;;68.23;36.53;;;;;;;7.02;58.87;95517.63;5053779;28;20464;-81
2022/03/16 07:36:09;;;;;;;64.27;36.57;;;;;;;7.03;58.63;95505.41;5053605;28;20536;-80
2022/03/16 07:38:36;;;;;;;87.60;38.33;;;;;;;7.19;59.10;95515.72;5054100;28;20441;-80
2022/03/16 07:41:03;;;;;;;78.73;39.07;;;;;;;7.22;58.03;95508.53;5035645;28;20442;-80
2022/03/16 07:43:30;;;;;;;60.90;34.47;;;;;;;7.24;57.33;95509.31;5054087;28;20442;-80
2022/03/16 07:45:58;;;;;;;72.83;36.40;;;;;;;7.31;56.85;95513.22;5053755;28;20485;-81
2022/03/16 07:48:25;;;;;;;60.57;33.60;;;;;;;7.35;56.28;95504.25;5053847;28;20458;-80
2022/03/16 07:50:53;;;;;;;65.40;34.70;;;;;;;7.37;56.08;95496.34;5054259;28;20442;-80
2022/03/16 07:53:20;;;;;;;56.53;30.90;;;;;;;7.40;55.60;95498.75;5053788;28;20446;-80
2022/03/16 07:55:48;;;;;;;52.03;29.47;;;;;;;7.42;55.07;95505.53;5035430;28;20460;-80
2022/03/16 07:58:15;;;;;;;50.73;27.93;;;;;;;7.44;55.35;95503.69;5053749;28;20492;-80
2022/03/16 08:00:41;;;;;;;48.10;23.00;;;;;;;7.54;55.82;95496.13;5053667;28;20445;-79
2022/03/16 08:03:09;;;;;;;35.87;21.63;;;;;;;7.59;55.95;95496.66;5054082;28;20548;-79
2022/03/16 08:05:35;;;;;;;35.83;22.33;;;;;;;7.65;55.13;95500.66;5053508;28;20457;-79
2022/03/16 08:08:04;;;;;;;57.40;25.00;;;;;;;7.71;55.75;95497.66;5018688;28;20540;-79
2022/03/16 08:10:31;;;;;;;54.83;28.73;;;;;;;7.73;55.24;95487.94;5053575;28;20457;-78
2022/03/16 08:12:58;;;;;;;53.20;25.80;;;;;;;7.84;55.15;95495.09;5053501;28;20446;-80
2022/03/16 08:15:25;;;;;;;39.50;22.57;;;;;;;7.92;55.28;95491.06;5053666;28;20453;-80
2022/03/16 08:17:52;;;;;;;25.80;18.40;;;;;;;7.99;54.56;95494.94;5053776;28;20472;-79
2022/03/16 08:20:19;;;;;;;25.27;15.33;;;;;;;8.00;54.16;95486.16;5053237;28;20449;-80
2022/03/16 08:22:45;;;;;;;33.00;17.17;;;;;;;8.08;54.47;95489.09;5053608;28;20491;-80
2022/03/16 08:25:14;;;;;;;30.27;18.47;;;;;;;8.15;54.18;95483.50;5053927;28;20967;-80
2022/03/16 08:27:41;;;;;;;40.47;22.20;;;;;;;8.22;54.45;95482.97;5053468;28;20486;-80
2022/03/16 08:30:11;;;;;;;33.37;19.50;;;;;;;8.26;53.87;95478.38;5034718;28;20442;-79
2022/03/16 08:32:38;;;;;;;27.13;17.83;;;;;;;8.31;54.18;95478.91;5053085;28;20536;-80
2022/03/16 08:35:06;;;;;;;32.07;18.43;;;;;;;8.38;54.41;95472.34;5053208;28;20438;-80
2022/03/16 08:37:33;;;;;;;28.80;19.50;;;;;;;8.40;54.66;95473.13;5053047;28;20449;-80
2022/03/16 08:40:00;;;;;;;44.93;22.57;;;;;;;8.39;54.55;95474.06;5053105;28;20635;-79
2022/03/16 08:42:28;;;;;;;45.90;25.33;;;;;;;8.47;54.46;95471.75;5053072;28;20452;-79
2022/03/16 08:44:55;;;;;;;54.00;31.50;;;;;;;8.50;54.11;95468.94;5053405;28;20454;-80
2022/03/16 08:47:22;;;;;;;57.37;33.30;;;;;;;8.52;53.36;95461.81;5052629;28;20854;-79
2022/03/16 08:49:51;;;;;;;64.50;35.00;;;;;;;8.41;53.41;95456.50;5052660;28;20453;-80
2022/03/16 08:52:18;;;;;;;52.63;26.13;;;;;;;8.49;51.41;95456.81;5033900;28;20442;-79
2022/03/16 08:54:45;;;;;;;48.03;28.70;;;;;;;8.56;50.87;95455.44;5052496;28;20446;-80
2022/03/16 08:57:15;;;;;;;47.30;26.07;;;;;;;8.58;49.97;95444.88;5052741;28;20446;-80
2022/03/16 08:59:43;;;;;;;57.13;35.27;;;;;;;8.59;49.93;95449.16;5053005;28;20466;-81
2022/03/16 09:02:11;;;;;;;67.07;37.33;;;;;;;8.61;50.15;95452.50;5052504;28;20447;-78
2022/03/16 09:04:38;;;;;;;51.97;30.90;;;;;;;8.46;50.31;95456.19;5052615;28;20449;-79
2022/03/16 09:07:05;;;;;;;43.03;24.47;;;;;;;8.45;49.63;95447.50;5033651;28;20478;-80
2022/03/16 09:09:33;;;;;;;31.40;18.77;;;;;;;8.41;48.99;95443.41;5052671;28;20437;-80
2022/03/16 09:12:00;;;;;;;38.90;19.60;;;;;;;8.45;47.90;95449.28;5052298;28;20440;-80
2022/03/16 09:14:28;;;;;;;41.07;19.33;;;;;;;8.41;47.81;95447.81;5052319;28;20827;-78
2022/03/16 09:16:56;;;;;;;31.53;16.90;;;;;;;8.36;47.47;95448.09;5052316;28;20457;-79
2022/03/16 09:19:23;;;;;;;30.47;19.70;;;;;;;8.35;47.72;95446.41;5052306;28;20442;-79
2022/03/16 09:21:51;;;;;;;30.90;17.53;;;;;;;8.43;47.57;95444.16;5052192;28;20480;-79
2022/03/16 09:24:18;;;;;;;34.83;16.60;;;;;;;8.50;47.32;95445.41;5052700;28;20450;-80
2022/03/16 09:26:46;;;;;;;27.10;16.97;;;;;;;8.59;46.83;95447.38;5052055;28;20489;-80
2022/03/16 09:29:13;;;;;;;32.93;16.97;;;;;;;8.54;46.91;95444.25;5052652;28;20442;-79
2022/03/16 09:31:42;;;;;;;31.63;17.30;;;;;;;8.49;47.57;95448.13;5052528;28;20445;-79
2022/03/16 09:34:10;;;;;;;34.80;19.17;;;;;;;8.58;47.59;95453.56;5052305;28;20438;-80
2022/03/16 09:36:39;;;;;;;37.17;21.50;;;;;;;8.61;47.19;95455.13;5052665;28;20460;-78
2022/03/16 09:39:06;;;;;;;37.67;19.70;;;;;;;8.74;47.13;95455.16;5052586;28;20438;-79
2022/03/16 09:41:33;;;;;;;37.33;18.13;;;;;;;8.83;47.67;95462.34;5051804;28;20932;-80
2022/03/16 09:44:01;;;;;;;36.03;17.07;;;;;;;8.93;46.53;95466.00;5033278;28;20446;-79
2022/03/16 09:46:33;;;;;;;45.83;17.80;;;;;;;9.09;46.26;95469.25;5052151;28;20510;-80
2022/03/16 09:49:00;;;;;;;27.03;18.53;;;;;;;9.18;46.32;95468.59;5051886;28;20453;-80
2022/03/16 09:51:31;;;;;;;31.73;17.73;;;;;;;9.34;46.46;95460.50;5033138;28;20993;-80
2022/03/16 09:53:59;;;;;;;32.97;19.27;;;;;;;9.48;46.17;95454.28;5052045;28;20528;-79
2022/03/16 09:56:26;;;;;;;42.53;21.40;;;;;;;9.48;45.59;95443.78;5051902;28;20477;-80
2022/03/16 09:58:53;;;;;;;39.30;19.73;;;;;;;9.43;45.56;95438.06;5054859;28;20446;-79
2022/03/16 10:01:20;;;;;;;34.60;19.97;;;;;;;9.49;46.11;95448.09;5055781;28;20525;-80
2022/03/16 10:03:49;;;;;;;39.03;18.90;;;;;;;9.58;45.09;95444.81;5056016;28;20457;-79
2022/03/16 10:06:17;;;;;;;42.33;18.30;;;;;;;9.61;44.49;95444.59;5055743;28;20437;-79
2022/03/16 10:13:13;;;;;;;40.80;19.80;;;;;;;9.65;44.90;95448.66;5055669;28;20968;-80
2022/03/16 10:14:20;;;;;;;35.80;19.13;;;;;;;9.57;45.22;95436.13;4974809;28;20496;-79
2022/03/16 10:19:49;;;;;;;39.47;18.57;;;;;;;9.60;45.52;95441.16;4974562;28;20511;-79
2022/03/16 10:22:25;;;;;;;44.07;20.70;;;;;;;9.54;45.25;95435.47;4974321;28;20828;-79
2022/03/16 10:24:59;;;;;;;40.43;20.93;;;;;;;9.53;45.75;95431.19;4974591;28;20448;-80
2022/03/16 10:27:25;;;;;;;35.63;19.77;;;;;;;9.52;45.32;95437.38;4974306;28;20504;-79
2022/03/16 10:29:52;;;;;;;30.63;16.87;;;;;;;9.49;44.61;95422.72;4974517;28;20530;-79
2022/03/16 10:32:22;;;;;;;26.73;18.50;;;;;;;9.50;44.86;95423.56;4974227;28;20521;-79
2022/03/16 10:34:52;;;;;;;26.37;16.53;;;;;;;9.49;45.71;95429.75;4974458;28;20453;-79
2022/03/16 10:37:21;;;;;;;30.63;18.80;;;;;;;9.52;45.79;95434.75;4974214;28;20488;-79
2022/03/16 10:39:50;;;;;;;33.77;18.33;;;;;;;9.50;45.42;95426.19;4942311;28;20445;-80
2022/03/16 10:48:14;;;;;;;34.93;19.73;;;;;;;9.49;46.08;95434.97;4917909;29;20471;-79
2022/03/16 10:50:41;;;;;;;28.27;17.50;;;;;;;9.56;45.47;95433.63;4931210;28;20495;-79
2022/03/16 10:53:11;;;;;;;34.50;20.73;;;;;;;9.56;45.67;95429.22;4975305;28;20936;-79
2022/03/16 10:55:39;;;;;;;33.17;20.33;;;;;;;9.50;45.25;95434.03;4975098;28;20452;-79
2022/03/16 10:58:09;;;;;;;37.00;20.53;;;;;;;9.61;45.71;95428.88;4975401;28;20459;-79
2022/03/16 11:00:37;;;;;;;44.33;22.40;;;;;;;9.59;45.57;95436.00;4975165;28;20446;-79
2022/03/16 11:03:07;;;;;;;36.80;20.17;;;;;;;9.54;45.45;95425.88;4975048;28;20464;-79
2022/03/16 11:05:37;;;;;;;33.97;20.80;;;;;;;9.51;45.23;95428.69;4975027;28;20437;-79
2022/03/16 11:08:07;;;;;;;50.23;23.40;;;;;;;9.64;45.23;95420.78;4975066;28;20473;-79
2022/03/16 11:10:36;;;;;;;37.10;20.43;;;;;;;9.67;45.44;95412.72;4974876;28;20450;-79
2022/03/16 11:15:51;;;;;;;43.50;22.80;;;;;;;9.51;47.10;95409.50;4994453;28;20426;-79
2022/03/16 11:18:19;;;;;;;38.70;22.30;;;;;;;9.65;47.47;95411.97;5036279;28;20443;-78
2022/03/16 11:20:47;;;;;;;46.50;19.53;;;;;;;9.70;46.11;95415.09;5050026;28;20944;-79
2022/03/16 11:26:15;;;;;;;55.83;20.17;;;;;;;9.72;44.57;95397.47;5055555;28;20429;-79
2022/03/16 11:28:52;;;;;;;40.07;21.40;;;;;;;9.48;46.14;95383.53;5055640;28;20470;-78
2022/03/16 11:34:47;;;;;;;48.57;20.77;;;;;;;9.37;47.96;95360.75;5054657;28;20487;-79
2022/03/16 11:37:14;;;;;;;39.87;19.13;;;;;;;9.21;47.63;95363.63;5036936;28;20933;-81
2022/03/16 11:39:44;;;;;;;35.17;18.40;;;;;;;9.15;47.47;95353.59;5056673;28;20442;-78
2022/03/16 11:42:13;;;;;;;39.57;19.07;;;;;;;9.08;48.74;95349.75;5055418;28;20446;-78
2022/03/16 11:44:40;;;;;;;31.57;19.13;;;;;;;9.22;47.46;95349.59;5055096;28;20541;-78
2022/03/16 11:47:33;;;;;;;29.60;16.00;;;;;;;9.14;48.69;95351.09;5054959;28;20476;-78
2022/03/16 11:50:14;;;;;;;36.37;18.47;;;;;;;9.18;48.97;95345.53;5055349;28;20461;-78
2022/03/16 11:52:59;;;;;;;34.97;17.50;;;;;;;9.35;48.63;95344.31;5055362;28;20418;-78
2022/03/16 11:55:44;;;;;;;33.53;16.53;;;;;;;9.51;48.02;95339.63;5055505;28;20448;-79
2022/03/16 11:58:19;;;;;;;33.20;17.33;;;;;;;9.52;47.64;95333.44;5055053;28;20445;-78
2022/03/16 12:00:48;;;;;;;33.87;16.10;;;;;;;9.68;47.06;95329.69;5055505;28;20840;-79